This is the latest recevied weather packets stored in our database for station/object DB0HRC-6. If no packets are shown the sender has not sent any weather packets the latest 10 day(s).
| Time | Temp. | Humidity | Pressure | Rain* | Wind** | Luminosity | Snow |
|---|---|---|---|---|---|---|---|
| 1777140903 | 14.44° C | 51% | 1010.8 hPa | 0 mm | - | - | - |
| 1777140003 | 15° C | 50% | 1011 hPa | 0 mm | - | - | - |
| 1777139103 | 15.56° C | 48% | 1010.7 hPa | 0 mm | - | - | - |
| 1777138203 | 16.11° C | 45% | 1010.6 hPa | 0 mm | - | - | - |
| 1777137303 | 16.67° C | 41% | 1010.6 hPa | 0 mm | - | - | - |
| 1777136403 | 17.22° C | 41% | 1010.4 hPa | 0 mm | - | - | - |
| 1777135504 | 17.22° C | 41% | 1010.4 hPa | 0 mm | - | - | - |
| 1777134603 | 17.78° C | 43% | 1010.5 hPa | 0 mm | - | - | - |
| 1777133703 | 18.33° C | 43% | 1010.5 hPa | 0 mm | - | - | - |
| 1777132804 | 18.33° C | 42% | 1010.5 hPa | 0 mm | - | - | - |
| 1777131903 | 18.33° C | 43% | 1010.6 hPa | 0 mm | - | - | - |
| 1777131003 | 18.33° C | 44% | 1010.7 hPa | 0 mm | - | - | - |
| 1777130103 | 18.33° C | 43% | 1010.6 hPa | 0 mm | - | - | - |
| 1777129204 | 18.33° C | 43% | 1010.8 hPa | 0 mm | - | - | - |
| 1777128303 | 18.33° C | 43% | 1010.5 hPa | 0 mm | - | - | - |
| 1777127403 | 18.33° C | 44% | 1010.7 hPa | 0 mm | - | - | - |
| 1777126503 | 18.33° C | 43% | 1010.7 hPa | 0 mm | - | - | - |
| 1777125603 | 18.89° C | 41% | 1010.6 hPa | 0 mm | - | - | - |
| 1777124703 | 18.89° C | 42% | 1010.8 hPa | 0 mm | - | - | - |
| 1777123803 | 18.33° C | 42% | 1010.9 hPa | 0 mm | - | - | - |
| 1777122904 | 18.33° C | 42% | 1010.9 hPa | 0 mm | - | - | - |
| 1777122006 | 17.78° C | 42% | 1011.3 hPa | 0 mm | - | - | - |
| 1777121103 | 17.78° C | 45% | 1011.4 hPa | 0 mm | - | - | - |
| 1777120203 | 17.22° C | 46% | 1011.5 hPa | 0 mm | - | - | - |
| 1777119303 | 16.67° C | 47% | 1011.8 hPa | 0 mm | - | - | - |
* Rain latest hour (hover to see other rain measurements)
** Current wind speed in m/s (hover to see current wind gust speed)